sensor_id;sensor_type;location;lat;lon;timestamp;temperature;humidity
50989;DHT22;37008;52.210;21.112;2022-07-31T00:02:19;15.50;99.90
50989;DHT22;37008;52.210;21.112;2022-07-31T00:04:45;15.50;99.90
50989;DHT22;37008;52.210;21.112;2022-07-31T00:07:11;15.40;99.90
50989;DHT22;37008;52.210;21.112;2022-07-31T00:09:37;15.40;99.90
50989;DHT22;37008;52.210;21.112;2022-07-31T00:12:03;15.50;99.90
50989;DHT22;37008;52.210;21.112;2022-07-31T00:14:29;15.50;99.90
50989;DHT22;37008;52.210;21.112;2022-07-31T00:16:54;15.50;99.90
50989;DHT22;37008;52.210;21.112;2022-07-31T00:19:21;15.50;99.90
50989;DHT22;37008;52.210;21.112;2022-07-31T00:21:47;15.40;99.90
50989;DHT22;37008;52.210;21.112;2022-07-31T00:24:13;15.50;99.90
50989;DHT22;37008;52.210;21.112;2022-07-31T00:26:39;15.40;99.90
50989;DHT22;37008;52.210;21.112;2022-07-31T00:29:05;15.50;99.90
50989;DHT22;37008;52.210;21.112;2022-07-31T00:31:31;15.50;99.90
50989;DHT22;37008;52.210;21.112;2022-07-31T00:33:56;15.40;99.90
50989;DHT22;37008;52.210;21.112;2022-07-31T00:36:22;15.50;99.90
50989;DHT22;37008;52.210;21.112;2022-07-31T00:38:48;15.50;99.90
50989;DHT22;37008;52.210;21.112;2022-07-31T00:41:13;15.50;99.90
50989;DHT22;37008;52.210;21.112;2022-07-31T00:43:39;15.50;99.90
50989;DHT22;37008;52.210;21.112;2022-07-31T00:46:05;15.50;99.90
50989;DHT22;37008;52.210;21.112;2022-07-31T00:48:31;15.50;99.90
50989;DHT22;37008;52.210;21.112;2022-07-31T00:50:57;15.50;99.90
50989;DHT22;37008;52.210;21.112;2022-07-31T00:53:23;15.50;99.90
50989;DHT22;37008;52.210;21.112;2022-07-31T00:55:49;15.50;99.90
50989;DHT22;37008;52.210;21.112;2022-07-31T00:58:15;15.50;99.90
50989;DHT22;37008;52.210;21.112;2022-07-31T01:00:41;15.50;99.90
50989;DHT22;37008;52.210;21.112;2022-07-31T01:03:06;15.50;99.90
50989;DHT22;37008;52.210;21.112;2022-07-31T01:05:32;15.50;99.90
50989;DHT22;37008;52.210;21.112;2022-07-31T01:07:57;15.60;99.90
50989;DHT22;37008;52.210;21.112;2022-07-31T01:13:13;15.60;99.90
50989;DHT22;37008;52.210;21.112;2022-07-31T01:15:42;15.50;99.90
50989;DHT22;37008;52.210;21.112;2022-07-31T01:18:09;15.50;99.90
50989;DHT22;37008;52.210;21.112;2022-07-31T01:20:36;15.60;99.90
50989;DHT22;37008;52.210;21.112;2022-07-31T01:23:21;15.50;99.90
50989;DHT22;37008;52.210;21.112;2022-07-31T01:26:17;15.50;99.90
50989;DHT22;37008;52.210;21.112;2022-07-31T01:31:26;15.50;99.90
50989;DHT22;37008;52.210;21.112;2022-07-31T01:34:18;15.50;99.90
50989;DHT22;37008;52.210;21.112;2022-07-31T01:36:52;15.50;99.90
50989;DHT22;37008;52.210;21.112;2022-07-31T01:39:20;15.50;99.90
50989;DHT22;37008;52.210;21.112;2022-07-31T01:41:46;15.40;99.90
50989;DHT22;37008;52.210;21.112;2022-07-31T01:44:14;15.40;99.90
50989;DHT22;37008;52.210;21.112;2022-07-31T01:46:42;15.40;99.90
50989;DHT22;37008;52.210;21.112;2022-07-31T01:49:10;15.40;99.90
50989;DHT22;37008;52.210;21.112;2022-07-31T01:51:38;15.40;99.90
50989;DHT22;37008;52.210;21.112;2022-07-31T01:54:04;15.40;99.90
50989;DHT22;37008;52.210;21.112;2022-07-31T01:56:31;15.40;99.90
50989;DHT22;37008;52.210;21.112;2022-07-31T01:58:59;15.30;99.90
50989;DHT22;37008;52.210;21.112;2022-07-31T02:01:25;15.40;99.90
50989;DHT22;37008;52.210;21.112;2022-07-31T02:03:54;15.30;99.90
50989;DHT22;37008;52.210;21.112;2022-07-31T02:06:21;15.30;99.90
50989;DHT22;37008;52.210;21.112;2022-07-31T02:08:51;15.30;99.90
50989;DHT22;37008;52.210;21.112;2022-07-31T02:11:18;15.30;99.90
50989;DHT22;37008;52.210;21.112;2022-07-31T02:13:45;15.30;99.90
50989;DHT22;37008;52.210;21.112;2022-07-31T02:16:17;15.30;99.90
50989;DHT22;37008;52.210;21.112;2022-07-31T02:18:46;15.20;99.90
50989;DHT22;37008;52.210;21.112;2022-07-31T02:21:12;15.20;99.90
50989;DHT22;37008;52.210;21.112;2022-07-31T02:23:38;15.20;99.90
50989;DHT22;37008;52.210;21.112;2022-07-31T02:26:03;15.20;99.90
50989;DHT22;37008;52.210;21.112;2022-07-31T02:28:31;15.20;99.90
50989;DHT22;37008;52.210;21.112;2022-07-31T02:30:59;15.20;99.90
50989;DHT22;37008;52.210;21.112;2022-07-31T02:33:26;15.20;99.90
50989;DHT22;37008;52.210;21.112;2022-07-31T02:35:55;15.20;99.90
50989;DHT22;37008;52.210;21.112;2022-07-31T02:38:25;15.20;99.90
50989;DHT22;37008;52.210;21.112;2022-07-31T02:40:56;15.20;99.90
50989;DHT22;37008;52.210;21.112;2022-07-31T02:43:24;15.20;99.90
50989;DHT22;37008;52.210;21.112;2022-07-31T02:45:51;15.20;99.90
50989;DHT22;37008;52.210;21.112;2022-07-31T02:48:17;15.10;99.90
50989;DHT22;37008;52.210;21.112;2022-07-31T02:50:42;15.20;99.90
50989;DHT22;37008;52.210;21.112;2022-07-31T02:53:08;15.20;99.90
50989;DHT22;37008;52.210;21.112;2022-07-31T02:55:34;15.20;99.90
50989;DHT22;37008;52.210;21.112;2022-07-31T02:58:01;15.20;99.90
50989;DHT22;37008;52.210;21.112;2022-07-31T03:00:28;15.20;99.90
50989;DHT22;37008;52.210;21.112;2022-07-31T03:02:54;15.10;99.90
50989;DHT22;37008;52.210;21.112;2022-07-31T03:05:20;15.10;99.90
50989;DHT22;37008;52.210;21.112;2022-07-31T03:07:46;15.10;99.90
50989;DHT22;37008;52.210;21.112;2022-07-31T03:10:11;15.20;99.90
50989;DHT22;37008;52.210;21.112;2022-07-31T03:12:42;15.10;99.90
50989;DHT22;37008;52.210;21.112;2022-07-31T03:15:12;15.10;99.90
50989;DHT22;37008;52.210;21.112;2022-07-31T03:17:39;15.20;99.90
50989;DHT22;37008;52.210;21.112;2022-07-31T03:20:07;15.10;99.90
50989;DHT22;37008;52.210;21.112;2022-07-31T03:22:33;15.20;99.90
50989;DHT22;37008;52.210;21.112;2022-07-31T03:25:00;15.20;99.90
50989;DHT22;37008;52.210;21.112;2022-07-31T03:27:26;15.20;99.90
50989;DHT22;37008;52.210;21.112;2022-07-31T03:29:52;15.20;99.90
50989;DHT22;37008;52.210;21.112;2022-07-31T03:32:19;15.20;99.90
50989;DHT22;37008;52.210;21.112;2022-07-31T03:34:45;15.20;99.90
50989;DHT22;37008;52.210;21.112;2022-07-31T03:37:11;15.20;99.90
50989;DHT22;37008;52.210;21.112;2022-07-31T03:39:37;15.20;99.90
50989;DHT22;37008;52.210;21.112;2022-07-31T03:42:02;15.30;99.90
50989;DHT22;37008;52.210;21.112;2022-07-31T03:44:30;15.30;99.90
50989;DHT22;37008;52.210;21.112;2022-07-31T03:46:56;15.30;99.90
50989;DHT22;37008;52.210;21.112;2022-07-31T03:49:23;15.30;99.90
50989;DHT22;37008;52.210;21.112;2022-07-31T03:51:49;15.30;99.90
50989;DHT22;37008;52.210;21.112;2022-07-31T03:54:15;15.30;99.90
50989;DHT22;37008;52.210;21.112;2022-07-31T03:56:46;15.30;99.90
50989;DHT22;37008;52.210;21.112;2022-07-31T03:59:14;15.30;99.90
50989;DHT22;37008;52.210;21.112;2022-07-31T04:01:40;15.30;99.90
50989;DHT22;37008;52.210;21.112;2022-07-31T04:04:06;15.30;99.90
50989;DHT22;37008;52.210;21.112;2022-07-31T04:06:32;15.30;99.90
50989;DHT22;37008;52.210;21.112;2022-07-31T04:08:58;15.30;99.90
50989;DHT22;37008;52.210;21.112;2022-07-31T04:11:26;15.30;99.90
50989;DHT22;37008;52.210;21.112;2022-07-31T04:13:52;15.30;99.90
50989;DHT22;37008;52.210;21.112;2022-07-31T04:16:19;15.30;99.90
50989;DHT22;37008;52.210;21.112;2022-07-31T04:18:45;15.30;99.90
50989;DHT22;37008;52.210;21.112;2022-07-31T04:21:10;15.40;99.90
50989;DHT22;37008;52.210;21.112;2022-07-31T04:23:36;15.40;99.90
50989;DHT22;37008;52.210;21.112;2022-07-31T04:26:01;15.40;99.90
50989;DHT22;37008;52.210;21.112;2022-07-31T04:28:27;15.40;99.90
50989;DHT22;37008;52.210;21.112;2022-07-31T04:30:53;15.40;99.90
50989;DHT22;37008;52.210;21.112;2022-07-31T04:33:18;15.50;99.90
50989;DHT22;37008;52.210;21.112;2022-07-31T04:35:44;15.50;99.90
50989;DHT22;37008;52.210;21.112;2022-07-31T04:38:10;15.50;99.90
50989;DHT22;37008;52.210;21.112;2022-07-31T04:40:37;15.40;99.90
50989;DHT22;37008;52.210;21.112;2022-07-31T04:43:03;15.50;99.90
50989;DHT22;37008;52.210;21.112;2022-07-31T04:45:28;15.50;99.90
50989;DHT22;37008;52.210;21.112;2022-07-31T04:47:54;15.50;99.90
50989;DHT22;37008;52.210;21.112;2022-07-31T04:50:19;15.50;99.90
50989;DHT22;37008;52.210;21.112;2022-07-31T04:52:45;15.50;99.90
50989;DHT22;37008;52.210;21.112;2022-07-31T04:55:11;15.50;99.90
50989;DHT22;37008;52.210;21.112;2022-07-31T04:57:36;15.50;99.90
50989;DHT22;37008;52.210;21.112;2022-07-31T05:00:05;15.50;99.90
50989;DHT22;37008;52.210;21.112;2022-07-31T05:02:31;15.60;99.90
50989;DHT22;37008;52.210;21.112;2022-07-31T05:04:57;15.50;99.90
50989;DHT22;37008;52.210;21.112;2022-07-31T05:07:22;15.60;99.90
50989;DHT22;37008;52.210;21.112;2022-07-31T05:09:48;15.60;99.90
50989;DHT22;37008;52.210;21.112;2022-07-31T05:12:14;15.60;99.90
50989;DHT22;37008;52.210;21.112;2022-07-31T05:14:39;15.60;99.90
50989;DHT22;37008;52.210;21.112;2022-07-31T05:17:05;15.60;99.90
50989;DHT22;37008;52.210;21.112;2022-07-31T05:19:31;15.60;99.90
50989;DHT22;37008;52.210;21.112;2022-07-31T05:21:57;15.60;99.90
50989;DHT22;37008;52.210;21.112;2022-07-31T05:24:24;15.60;99.90
50989;DHT22;37008;52.210;21.112;2022-07-31T05:26:49;15.50;99.90
50989;DHT22;37008;52.210;21.112;2022-07-31T05:29:15;15.60;99.90
50989;DHT22;37008;52.210;21.112;2022-07-31T05:31:41;15.60;99.90
50989;DHT22;37008;52.210;21.112;2022-07-31T05:34:06;15.60;99.90
50989;DHT22;37008;52.210;21.112;2022-07-31T05:36:32;15.60;99.90
50989;DHT22;37008;52.210;21.112;2022-07-31T05:38:58;15.70;99.90
50989;DHT22;37008;52.210;21.112;2022-07-31T05:41:23;15.70;99.90
50989;DHT22;37008;52.210;21.112;2022-07-31T05:43:49;15.70;99.90
50989;DHT22;37008;52.210;21.112;2022-07-31T05:46:15;15.70;99.90
50989;DHT22;37008;52.210;21.112;2022-07-31T05:48:42;15.70;99.90
50989;DHT22;37008;52.210;21.112;2022-07-31T05:51:12;15.70;99.90
50989;DHT22;37008;52.210;21.112;2022-07-31T05:53:38;15.70;99.90
50989;DHT22;37008;52.210;21.112;2022-07-31T05:56:05;15.70;99.90
50989;DHT22;37008;52.210;21.112;2022-07-31T05:58:31;15.70;99.90
50989;DHT22;37008;52.210;21.112;2022-07-31T06:00:58;15.70;99.90
50989;DHT22;37008;52.210;21.112;2022-07-31T06:03:25;15.70;99.90
50989;DHT22;37008;52.210;21.112;2022-07-31T06:05:54;15.60;99.90
50989;DHT22;37008;52.210;21.112;2022-07-31T06:08:21;15.60;99.90
50989;DHT22;37008;52.210;21.112;2022-07-31T06:10:47;15.60;99.90
50989;DHT22;37008;52.210;21.112;2022-07-31T06:13:13;15.60;99.90
50989;DHT22;37008;52.210;21.112;2022-07-31T06:15:42;15.60;99.90
50989;DHT22;37008;52.210;21.112;2022-07-31T06:18:09;15.60;99.90
50989;DHT22;37008;52.210;21.112;2022-07-31T06:20:34;15.60;99.90
50989;DHT22;37008;52.210;21.112;2022-07-31T06:23:00;15.50;99.90
50989;DHT22;37008;52.210;21.112;2022-07-31T06:25:26;15.50;99.90
50989;DHT22;37008;52.210;21.112;2022-07-31T06:27:52;15.50;99.90
50989;DHT22;37008;52.210;21.112;2022-07-31T06:30:18;15.50;99.90
50989;DHT22;37008;52.210;21.112;2022-07-31T06:32:43;15.50;99.90
50989;DHT22;37008;52.210;21.112;2022-07-31T06:35:09;15.50;99.90
50989;DHT22;37008;52.210;21.112;2022-07-31T06:37:35;15.50;99.90
50989;DHT22;37008;52.210;21.112;2022-07-31T06:40:00;15.60;99.90
50989;DHT22;37008;52.210;21.112;2022-07-31T06:42:26;15.60;99.90
50989;DHT22;37008;52.210;21.112;2022-07-31T06:44:52;15.60;99.90
50989;DHT22;37008;52.210;21.112;2022-07-31T06:47:20;15.60;99.90
50989;DHT22;37008;52.210;21.112;2022-07-31T06:49:46;15.70;99.90
50989;DHT22;37008;52.210;21.112;2022-07-31T06:52:11;15.70;99.90
50989;DHT22;37008;52.210;21.112;2022-07-31T06:54:37;15.70;99.90
50989;DHT22;37008;52.210;21.112;2022-07-31T06:57:03;15.70;99.90
50989;DHT22;37008;52.210;21.112;2022-07-31T06:59:29;15.70;99.90
50989;DHT22;37008;52.210;21.112;2022-07-31T07:01:54;15.80;99.90
50989;DHT22;37008;52.210;21.112;2022-07-31T07:04:20;15.70;99.90
50989;DHT22;37008;52.210;21.112;2022-07-31T07:06:46;15.70;99.90
50989;DHT22;37008;52.210;21.112;2022-07-31T07:09:11;15.80;99.90
50989;DHT22;37008;52.210;21.112;2022-07-31T07:11:37;15.80;99.90
50989;DHT22;37008;52.210;21.112;2022-07-31T07:14:02;15.80;99.90
50989;DHT22;37008;52.210;21.112;2022-07-31T07:16:28;15.90;99.90
50989;DHT22;37008;52.210;21.112;2022-07-31T07:18:54;15.90;99.90
50989;DHT22;37008;52.210;21.112;2022-07-31T07:21:19;15.90;99.90
50989;DHT22;37008;52.210;21.112;2022-07-31T07:23:45;15.90;99.90
50989;DHT22;37008;52.210;21.112;2022-07-31T07:26:11;16.00;99.90
50989;DHT22;37008;52.210;21.112;2022-07-31T07:28:36;16.00;99.90
50989;DHT22;37008;52.210;21.112;2022-07-31T07:31:03;16.00;99.90
50989;DHT22;37008;52.210;21.112;2022-07-31T07:33:29;16.00;99.90
50989;DHT22;37008;52.210;21.112;2022-07-31T07:35:56;16.10;99.90
50989;DHT22;37008;52.210;21.112;2022-07-31T07:38:22;16.10;99.90
50989;DHT22;37008;52.210;21.112;2022-07-31T07:40:48;16.10;99.90
50989;DHT22;37008;52.210;21.112;2022-07-31T07:43:13;16.10;99.90
50989;DHT22;37008;52.210;21.112;2022-07-31T07:45:39;16.20;99.90
50989;DHT22;37008;52.210;21.112;2022-07-31T07:48:05;16.20;99.90
50989;DHT22;37008;52.210;21.112;2022-07-31T07:50:31;16.30;99.90
50989;DHT22;37008;52.210;21.112;2022-07-31T07:52:57;16.30;99.90
50989;DHT22;37008;52.210;21.112;2022-07-31T07:55:22;16.30;99.90
50989;DHT22;37008;52.210;21.112;2022-07-31T07:57:48;16.40;99.90
50989;DHT22;37008;52.210;21.112;2022-07-31T08:00:14;16.40;99.90
50989;DHT22;37008;52.210;21.112;2022-07-31T08:02:40;16.40;99.90
50989;DHT22;37008;52.210;21.112;2022-07-31T08:05:09;16.40;99.90
50989;DHT22;37008;52.210;21.112;2022-07-31T08:07:35;16.50;99.90
50989;DHT22;37008;52.210;21.112;2022-07-31T08:10:06;16.60;99.90
50989;DHT22;37008;52.210;21.112;2022-07-31T08:12:31;16.60;99.90
50989;DHT22;37008;52.210;21.112;2022-07-31T08:14:57;16.60;99.90
50989;DHT22;37008;52.210;21.112;2022-07-31T08:17:23;16.70;99.90
50989;DHT22;37008;52.210;21.112;2022-07-31T08:19:49;16.70;99.90
50989;DHT22;37008;52.210;21.112;2022-07-31T08:22:15;16.80;99.90
50989;DHT22;37008;52.210;21.112;2022-07-31T08:24:41;16.70;99.90
50989;DHT22;37008;52.210;21.112;2022-07-31T08:27:07;16.80;99.90
50989;DHT22;37008;52.210;21.112;2022-07-31T08:29:53;16.80;99.90
50989;DHT22;37008;52.210;21.112;2022-07-31T08:32:19;16.80;99.90
50989;DHT22;37008;52.210;21.112;2022-07-31T08:34:45;16.80;99.90
50989;DHT22;37008;52.210;21.112;2022-07-31T08:37:11;16.90;99.90
50989;DHT22;37008;52.210;21.112;2022-07-31T08:39:38;16.90;99.90
50989;DHT22;37008;52.210;21.112;2022-07-31T08:42:05;17.00;99.90
50989;DHT22;37008;52.210;21.112;2022-07-31T08:44:38;17.00;99.90
50989;DHT22;37008;52.210;21.112;2022-07-31T08:47:05;17.10;99.90
50989;DHT22;37008;52.210;21.112;2022-07-31T08:49:48;17.10;99.90
50989;DHT22;37008;52.210;21.112;2022-07-31T08:52:22;17.20;99.90
50989;DHT22;37008;52.210;21.112;2022-07-31T08:54:51;17.20;99.90
50989;DHT22;37008;52.210;21.112;2022-07-31T08:57:20;17.20;99.90
50989;DHT22;37008;52.210;21.112;2022-07-31T08:59:54;17.40;99.90
50989;DHT22;37008;52.210;21.112;2022-07-31T09:02:20;17.40;99.90
50989;DHT22;37008;52.210;21.112;2022-07-31T09:04:45;17.40;99.90
50989;DHT22;37008;52.210;21.112;2022-07-31T09:07:17;17.50;99.90
50989;DHT22;37008;52.210;21.112;2022-07-31T09:09:44;17.50;99.90
50989;DHT22;37008;52.210;21.112;2022-07-31T09:12:10;17.40;99.90
50989;DHT22;37008;52.210;21.112;2022-07-31T09:14:36;17.50;99.90
50989;DHT22;37008;52.210;21.112;2022-07-31T09:17:07;17.50;99.90
50989;DHT22;37008;52.210;21.112;2022-07-31T09:19:46;17.60;99.90
50989;DHT22;37008;52.210;21.112;2022-07-31T09:22:39;17.60;99.90
50989;DHT22;37008;52.210;21.112;2022-07-31T09:25:15;17.70;99.90
50989;DHT22;37008;52.210;21.112;2022-07-31T09:27:43;17.80;99.90
50989;DHT22;37008;52.210;21.112;2022-07-31T09:30:09;17.80;99.90
50989;DHT22;37008;52.210;21.112;2022-07-31T09:32:39;17.90;99.90
50989;DHT22;37008;52.210;21.112;2022-07-31T09:35:14;18.00;99.90
50989;DHT22;37008;52.210;21.112;2022-07-31T09:37:44;17.90;99.90
50989;DHT22;37008;52.210;21.112;2022-07-31T09:40:19;17.90;99.90
50989;DHT22;37008;52.210;21.112;2022-07-31T09:42:44;17.90;99.90
50989;DHT22;37008;52.210;21.112;2022-07-31T09:45:17;17.90;99.90
50989;DHT22;37008;52.210;21.112;2022-07-31T09:47:43;17.90;99.90
50989;DHT22;37008;52.210;21.112;2022-07-31T09:50:09;18.00;99.90
50989;DHT22;37008;52.210;21.112;2022-07-31T09:52:35;18.00;99.90
50989;DHT22;37008;52.210;21.112;2022-07-31T09:55:08;18.00;99.90
50989;DHT22;37008;52.210;21.112;2022-07-31T09:57:36;18.00;99.90
50989;DHT22;37008;52.210;21.112;2022-07-31T10:00:07;18.10;99.90
50989;DHT22;37008;52.210;21.112;2022-07-31T10:02:35;18.10;99.90
50989;DHT22;37008;52.210;21.112;2022-07-31T10:05:03;18.00;99.90
50989;DHT22;37008;52.210;21.112;2022-07-31T10:07:29;18.00;99.90
50989;DHT22;37008;52.210;21.112;2022-07-31T10:10:00;17.90;99.90
50989;DHT22;37008;52.210;21.112;2022-07-31T10:12:28;17.90;99.90
50989;DHT22;37008;52.210;21.112;2022-07-31T10:15:02;17.90;99.90
50989;DHT22;37008;52.210;21.112;2022-07-31T10:17:29;17.80;99.90
50989;DHT22;37008;52.210;21.112;2022-07-31T10:20:01;17.80;99.90
50989;DHT22;37008;52.210;21.112;2022-07-31T10:22:33;17.80;99.90
50989;DHT22;37008;52.210;21.112;2022-07-31T10:25:00;17.80;99.90
50989;DHT22;37008;52.210;21.112;2022-07-31T10:27:28;17.80;99.90
50989;DHT22;37008;52.210;21.112;2022-07-31T10:29:55;17.80;99.90
50989;DHT22;37008;52.210;21.112;2022-07-31T10:32:21;17.80;99.90
50989;DHT22;37008;52.210;21.112;2022-07-31T10:34:47;17.70;99.90
50989;DHT22;37008;52.210;21.112;2022-07-31T10:37:21;17.80;99.90
50989;DHT22;37008;52.210;21.112;2022-07-31T10:42:46;17.70;99.90
50989;DHT22;37008;52.210;21.112;2022-07-31T10:45:14;17.60;99.90
50989;DHT22;37008;52.210;21.112;2022-07-31T10:47:52;17.60;99.90
50989;DHT22;37008;52.210;21.112;2022-07-31T10:50:23;17.50;99.90
50989;DHT22;37008;52.210;21.112;2022-07-31T10:52:49;17.50;99.90
50989;DHT22;37008;52.210;21.112;2022-07-31T10:55:19;17.50;99.90
50989;DHT22;37008;52.210;21.112;2022-07-31T10:57:50;17.50;99.90
50989;DHT22;37008;52.210;21.112;2022-07-31T11:00:20;17.50;99.90
50989;DHT22;37008;52.210;21.112;2022-07-31T11:02:47;17.50;99.90
50989;DHT22;37008;52.210;21.112;2022-07-31T11:05:18;17.50;99.90
50989;DHT22;37008;52.210;21.112;2022-07-31T11:07:58;17.60;99.90
50989;DHT22;37008;52.210;21.112;2022-07-31T11:10:23;17.50;99.90
50989;DHT22;37008;52.210;21.112;2022-07-31T11:15:29;17.70;99.90
50989;DHT22;37008;52.210;21.112;2022-07-31T11:17:55;17.80;99.90
50989;DHT22;37008;52.210;21.112;2022-07-31T11:20:26;17.80;99.90
50989;DHT22;37008;52.210;21.112;2022-07-31T11:25:24;17.90;99.90
50989;DHT22;37008;52.210;21.112;2022-07-31T11:27:54;17.90;99.90
50989;DHT22;37008;52.210;21.112;2022-07-31T11:30:19;17.90;99.90
50989;DHT22;37008;52.210;21.112;2022-07-31T11:32:50;17.90;99.90
50989;DHT22;37008;52.210;21.112;2022-07-31T11:35:29;18.00;99.90
50989;DHT22;37008;52.210;21.112;2022-07-31T11:37:57;18.10;99.90
50989;DHT22;37008;52.210;21.112;2022-07-31T11:40:23;18.20;99.90
50989;DHT22;37008;52.210;21.112;2022-07-31T11:42:48;18.30;99.90
50989;DHT22;37008;52.210;21.112;2022-07-31T11:45:15;18.40;99.90
50989;DHT22;37008;52.210;21.112;2022-07-31T11:47:46;18.40;99.90
50989;DHT22;37008;52.210;21.112;2022-07-31T11:50:13;18.40;99.90
50989;DHT22;37008;52.210;21.112;2022-07-31T11:52:39;18.40;99.90
50989;DHT22;37008;52.210;21.112;2022-07-31T11:55:10;18.30;99.90
50989;DHT22;37008;52.210;21.112;2022-07-31T11:57:37;18.20;99.90
50989;DHT22;37008;52.210;21.112;2022-07-31T12:00:08;18.10;99.90
50989;DHT22;37008;52.210;21.112;2022-07-31T12:02:34;18.00;99.90
50989;DHT22;37008;52.210;21.112;2022-07-31T12:05:03;18.00;99.90
50989;DHT22;37008;52.210;21.112;2022-07-31T12:07:29;18.00;99.90
50989;DHT22;37008;52.210;21.112;2022-07-31T12:09:55;17.90;99.90
50989;DHT22;37008;52.210;21.112;2022-07-31T12:12:21;17.90;99.90
50989;DHT22;37008;52.210;21.112;2022-07-31T12:14:47;17.90;99.90
50989;DHT22;37008;52.210;21.112;2022-07-31T12:17:21;17.90;99.90
50989;DHT22;37008;52.210;21.112;2022-07-31T12:19:47;17.90;99.90
50989;DHT22;37008;52.210;21.112;2022-07-31T12:22:14;17.90;99.90
50989;DHT22;37008;52.210;21.112;2022-07-31T12:24:40;17.80;99.90
50989;DHT22;37008;52.210;21.112;2022-07-31T12:27:06;17.80;99.90
50989;DHT22;37008;52.210;21.112;2022-07-31T12:29:37;17.80;99.90
50989;DHT22;37008;52.210;21.112;2022-07-31T12:32:04;17.80;99.90
50989;DHT22;37008;52.210;21.112;2022-07-31T12:34:35;17.90;99.90
50989;DHT22;37008;52.210;21.112;2022-07-31T12:37:04;17.90;99.90
50989;DHT22;37008;52.210;21.112;2022-07-31T12:39:35;17.80;99.90
50989;DHT22;37008;52.210;21.112;2022-07-31T12:42:01;17.80;99.90
50989;DHT22;37008;52.210;21.112;2022-07-31T12:44:27;17.70;99.90
50989;DHT22;37008;52.210;21.112;2022-07-31T12:46:53;17.70;99.90
50989;DHT22;37008;52.210;21.112;2022-07-31T12:49:19;17.60;99.90
50989;DHT22;37008;52.210;21.112;2022-07-31T12:51:44;17.60;99.90
50989;DHT22;37008;52.210;21.112;2022-07-31T12:54:11;17.60;99.90
50989;DHT22;37008;52.210;21.112;2022-07-31T12:56:39;17.50;99.90
50989;DHT22;37008;52.210;21.112;2022-07-31T12:59:07;17.60;99.90
50989;DHT22;37008;52.210;21.112;2022-07-31T13:01:33;17.50;99.90
50989;DHT22;37008;52.210;21.112;2022-07-31T13:04:00;17.50;99.90
50989;DHT22;37008;52.210;21.112;2022-07-31T13:06:27;17.50;99.90
50989;DHT22;37008;52.210;21.112;2022-07-31T13:08:54;17.50;99.90
50989;DHT22;37008;52.210;21.112;2022-07-31T13:11:20;17.50;99.90
50989;DHT22;37008;52.210;21.112;2022-07-31T13:13:45;17.50;99.90
50989;DHT22;37008;52.210;21.112;2022-07-31T13:16:11;17.40;99.90
50989;DHT22;37008;52.210;21.112;2022-07-31T13:18:36;17.40;99.90
50989;DHT22;37008;52.210;21.112;2022-07-31T13:21:03;17.40;99.90
50989;DHT22;37008;52.210;21.112;2022-07-31T13:23:29;17.30;99.90
50989;DHT22;37008;52.210;21.112;2022-07-31T13:25:55;17.40;99.90
50989;DHT22;37008;52.210;21.112;2022-07-31T13:28:22;17.40;99.90
50989;DHT22;37008;52.210;21.112;2022-07-31T13:30:47;17.40;99.90
50989;DHT22;37008;52.210;21.112;2022-07-31T13:33:13;17.40;99.90
50989;DHT22;37008;52.210;21.112;2022-07-31T13:35:39;17.40;99.90
50989;DHT22;37008;52.210;21.112;2022-07-31T13:38:05;17.40;99.90
50989;DHT22;37008;52.210;21.112;2022-07-31T13:40:31;17.40;99.90
50989;DHT22;37008;52.210;21.112;2022-07-31T13:43:15;17.40;99.90
50989;DHT22;37008;52.210;21.112;2022-07-31T13:45:41;17.30;99.90
50989;DHT22;37008;52.210;21.112;2022-07-31T13:48:07;17.30;99.90
50989;DHT22;37008;52.210;21.112;2022-07-31T13:50:33;17.20;99.90
50989;DHT22;37008;52.210;21.112;2022-07-31T13:52:59;17.30;99.90
50989;DHT22;37008;52.210;21.112;2022-07-31T13:55:25;17.30;99.90
50989;DHT22;37008;52.210;21.112;2022-07-31T13:57:51;17.20;99.90
50989;DHT22;37008;52.210;21.112;2022-07-31T14:00:16;17.20;99.90
50989;DHT22;37008;52.210;21.112;2022-07-31T14:02:42;17.10;99.90
50989;DHT22;37008;52.210;21.112;2022-07-31T14:05:13;17.20;99.90
50989;DHT22;37008;52.210;21.112;2022-07-31T14:07:39;17.10;99.90
50989;DHT22;37008;52.210;21.112;2022-07-31T14:10:05;17.00;99.90
50989;DHT22;37008;52.210;21.112;2022-07-31T14:12:31;17.00;99.90
50989;DHT22;37008;52.210;21.112;2022-07-31T14:14:57;17.00;99.90
50989;DHT22;37008;52.210;21.112;2022-07-31T14:17:22;17.00;99.90
50989;DHT22;37008;52.210;21.112;2022-07-31T14:19:48;17.00;99.90
50989;DHT22;37008;52.210;21.112;2022-07-31T14:22:14;17.00;99.90
50989;DHT22;37008;52.210;21.112;2022-07-31T14:24:40;17.00;99.90
50989;DHT22;37008;52.210;21.112;2022-07-31T14:27:06;16.90;99.90
50989;DHT22;37008;52.210;21.112;2022-07-31T14:29:32;16.90;99.90
50989;DHT22;37008;52.210;21.112;2022-07-31T14:31:57;16.90;99.90
50989;DHT22;37008;52.210;21.112;2022-07-31T14:34:23;16.90;99.90
50989;DHT22;37008;52.210;21.112;2022-07-31T14:36:49;16.90;99.90
50989;DHT22;37008;52.210;21.112;2022-07-31T14:39:15;16.90;99.90
50989;DHT22;37008;52.210;21.112;2022-07-31T14:41:41;16.90;99.90
50989;DHT22;37008;52.210;21.112;2022-07-31T14:44:08;16.90;99.90
50989;DHT22;37008;52.210;21.112;2022-07-31T14:46:34;16.90;99.90
50989;DHT22;37008;52.210;21.112;2022-07-31T14:49:00;16.90;99.90
50989;DHT22;37008;52.210;21.112;2022-07-31T14:51:27;16.90;99.90
50989;DHT22;37008;52.210;21.112;2022-07-31T14:53:52;16.90;99.90
50989;DHT22;37008;52.210;21.112;2022-07-31T14:56:18;16.90;99.90
50989;DHT22;37008;52.210;21.112;2022-07-31T14:58:43;16.90;99.90
50989;DHT22;37008;52.210;21.112;2022-07-31T15:01:09;17.00;99.90
50989;DHT22;37008;52.210;21.112;2022-07-31T15:03:35;17.00;99.90
50989;DHT22;37008;52.210;21.112;2022-07-31T15:06:00;17.00;99.90
50989;DHT22;37008;52.210;21.112;2022-07-31T15:08:26;17.10;99.90
50989;DHT22;37008;52.210;21.112;2022-07-31T15:10:51;17.00;99.90
50989;DHT22;37008;52.210;21.112;2022-07-31T15:13:17;17.00;99.90
50989;DHT22;37008;52.210;21.112;2022-07-31T15:15:43;17.00;99.90
50989;DHT22;37008;52.210;21.112;2022-07-31T15:18:10;16.90;99.90
50989;DHT22;37008;52.210;21.112;2022-07-31T15:20:36;16.90;99.90
50989;DHT22;37008;52.210;21.112;2022-07-31T15:23:02;16.90;99.90
50989;DHT22;37008;52.210;21.112;2022-07-31T15:25:28;16.80;99.90
50989;DHT22;37008;52.210;21.112;2022-07-31T15:27:53;16.80;99.90
50989;DHT22;37008;52.210;21.112;2022-07-31T15:30:19;16.70;99.90